createdAt,value
2023-03-28T00:02:56.642Z,11.73
2023-03-28T00:07:59.947Z,10.40
2023-03-28T00:13:02.516Z,8.73
2023-03-28T00:18:05.760Z,9.20
2023-03-28T00:23:10.030Z,8.87
2023-03-28T00:28:12.629Z,11.40
2023-03-28T00:33:15.980Z,8.67
2023-03-28T00:38:18.523Z,10.27
2023-03-28T00:43:42.716Z,11.83
2023-03-28T00:48:59.292Z,10.10
2023-03-28T00:54:04.274Z,7.10
2023-03-28T00:59:11.986Z,7.53
2023-03-28T01:04:20.337Z,10.67
2023-03-28T01:09:25.450Z,10.03
2023-03-28T01:14:30.336Z,10.60
2023-03-28T01:19:59.054Z,6.30
2023-03-28T01:25:39.102Z,6.90
2023-03-28T01:30:59.737Z,6.93
2023-03-28T01:36:53.222Z,7.77
2023-03-28T01:42:07.047Z,6.77
2023-03-28T01:47:24.998Z,9.73
2023-03-28T01:52:36.480Z,7.90
2023-03-28T01:57:58.385Z,7.77
2023-03-28T02:03:25.158Z,4.90
2023-03-28T02:08:37.218Z,6.07
2023-03-28T02:14:13.791Z,6.77
2023-03-28T02:19:28.834Z,5.13
2023-03-28T02:24:39.157Z,3.90
2023-03-28T02:29:49.599Z,5.60
2023-03-28T02:34:55.974Z,4.83
2023-03-28T02:40:13.869Z,5.60
2023-03-28T02:45:57.395Z,5.63
2023-03-28T02:51:17.694Z,4.80
2023-03-28T02:56:37.645Z,5.40
2023-03-28T03:01:45.007Z,4.00
2023-03-28T03:06:48.517Z,5.17
2023-03-28T03:11:51.181Z,4.97
2023-03-28T03:16:54.287Z,3.33
2023-03-28T03:21:56.704Z,4.10
2023-03-28T03:26:59.412Z,3.43
2023-03-28T03:32:02.299Z,3.60
2023-03-28T03:37:19.249Z,3.00
2023-03-28T03:42:21.860Z,3.20
2023-03-28T03:47:24.780Z,2.37
2023-03-28T03:52:27.387Z,2.93
2023-03-28T03:57:30.930Z,1.87
2023-03-28T04:02:36.740Z,3.37
2023-03-28T04:07:41.267Z,3.43
2023-03-28T04:12:50.755Z,1.97
2023-03-28T04:17:56.893Z,2.93
2023-03-28T04:23:01.711Z,2.70
2023-03-28T04:28:06.349Z,2.13
2023-03-28T04:33:13.535Z,2.93
2023-03-28T04:38:20.902Z,2.43
2023-03-28T04:43:31.842Z,2.03
2023-03-28T04:48:34.932Z,1.00
2023-03-28T04:53:37.550Z,2.63
2023-03-28T04:58:58.858Z,0.47
2023-03-28T05:04:04.086Z,0.70
2023-03-28T05:09:07.872Z,0.60
2023-03-28T05:14:10.574Z,0.77
2023-03-28T05:19:20.928Z,1.00
2023-03-28T05:24:37.159Z,0.70
2023-03-28T05:29:46.142Z,0.60
2023-03-28T05:34:50.429Z,0.60
2023-03-28T05:39:53.081Z,0.40
2023-03-28T05:44:55.964Z,1.40
2023-03-28T05:50:06.580Z,0.90
2023-03-28T05:55:09.787Z,0.80
2023-03-28T06:00:13.632Z,1.10
2023-03-28T06:05:22.034Z,1.10
2023-03-28T06:10:25.835Z,1.00
2023-03-28T06:15:51.097Z,1.33
2023-03-28T06:20:57.328Z,0.60
2023-03-28T06:26:00.080Z,1.10
2023-03-28T06:31:11.743Z,0.97
2023-03-28T06:36:14.835Z,1.77
2023-03-28T06:41:18.183Z,0.40
2023-03-28T06:46:20.843Z,1.40
2023-03-28T06:51:23.841Z,1.03
2023-03-28T06:56:26.373Z,0.97
2023-03-28T07:01:31.374Z,1.63
2023-03-28T07:06:44.289Z,0.90
2023-03-28T07:11:47.035Z,1.40
2023-03-28T07:16:49.814Z,1.67
2023-03-28T07:21:56.380Z,1.70
2023-03-28T07:27:14.863Z,1.00
2023-03-28T07:32:20.455Z,1.30
2023-03-28T07:37:23.156Z,0.90
2023-03-28T07:42:41.799Z,1.50
2023-03-28T07:47:44.334Z,1.30
2023-03-28T07:52:47.414Z,1.67
2023-03-28T07:57:50.930Z,1.10
2023-03-28T08:03:05.863Z,1.63
2023-03-28T08:08:08.963Z,1.07
2023-03-28T08:13:11.936Z,2.20
2023-03-28T08:18:20.901Z,2.00
2023-03-28T08:23:24.162Z,1.30
2023-03-28T08:28:45.831Z,0.57
2023-03-28T08:33:53.648Z,0.60
2023-03-28T08:39:04.658Z,0.70
2023-03-28T08:44:18.151Z,1.00
2023-03-28T08:49:20.859Z,1.10
2023-03-28T08:54:43.663Z,1.23
2023-03-28T08:59:53.645Z,1.90
2023-03-28T09:05:12.025Z,0.90
2023-03-28T09:10:36.346Z,2.53
2023-03-28T09:16:09.494Z,1.53
2023-03-28T09:22:05.009Z,4.13
2023-03-28T09:27:32.930Z,1.87
2023-03-28T09:32:40.137Z,1.27
2023-03-28T09:37:47.085Z,0.80
2023-03-28T09:42:57.303Z,0.87
2023-03-28T09:48:21.646Z,1.40
2023-03-28T09:53:36.388Z,0.70
2023-03-28T09:58:53.764Z,8.57
2023-03-28T10:04:31.440Z,2.53
2023-03-28T10:09:51.879Z,2.57
2023-03-28T10:14:54.500Z,2.90
2023-03-28T10:20:21.900Z,4.00
2023-03-28T10:25:38.064Z,2.10
2023-03-28T10:30:41.913Z,0.90
2023-03-28T10:35:54.751Z,3.37
2023-03-28T10:41:02.603Z,2.37
2023-03-28T10:46:36.429Z,2.70
2023-03-28T10:52:01.404Z,1.00
2023-03-28T10:57:28.119Z,42.10
2023-03-28T11:02:51.911Z,4.50
2023-03-28T11:08:24.700Z,1.97
2023-03-28T11:14:07.980Z,2.73
2023-03-28T11:19:20.442Z,1.50
2023-03-28T11:25:02.912Z,3.67
2023-03-28T11:30:33.784Z,1.37
2023-03-28T11:35:58.691Z,5.07
2023-03-28T11:41:15.800Z,3.60
2023-03-28T11:46:59.489Z,1.20
2023-03-28T11:52:17.615Z,2.27
2023-03-28T11:57:39.519Z,2.30
2023-03-28T12:02:52.670Z,0.93
2023-03-28T12:07:59.263Z,1.43
2023-03-28T12:13:14.886Z,1.37
2023-03-28T12:18:57.888Z,0.70
2023-03-28T12:24:44.832Z,0.80
2023-03-28T12:30:16.593Z,1.30
2023-03-28T12:35:34.195Z,1.37
2023-03-28T12:40:49.404Z,1.20
2023-03-28T12:46:01.337Z,1.37
2023-03-28T12:51:22.207Z,1.10
2023-03-28T12:56:25.960Z,0.60
2023-03-28T13:01:50.423Z,0.70
2023-03-28T13:07:31.128Z,0.60
2023-03-28T13:13:00.727Z,0.70
2023-03-28T13:18:21.365Z,0.83
2023-03-28T13:23:47.513Z,0.57
2023-03-28T13:28:53.450Z,0.67
2023-03-28T13:34:00.843Z,0.47
2023-03-28T13:39:18.696Z,0.97
2023-03-28T13:44:39.856Z,1.03
2023-03-28T13:49:52.117Z,1.30
2023-03-28T13:55:01.674Z,0.70
2023-03-28T14:00:06.990Z,1.00
2023-03-28T14:05:34.066Z,1.30
2023-03-28T14:10:40.864Z,1.50
2023-03-28T14:15:44.355Z,1.10
2023-03-28T14:20:47.040Z,1.00
2023-03-28T14:25:49.861Z,1.53
2023-03-28T14:30:52.416Z,0.80
2023-03-28T14:36:05.788Z,10.87
2023-03-28T14:41:13.130Z,1.83
2023-03-28T14:46:17.183Z,1.00
2023-03-28T14:51:22.671Z,1.00
2023-03-28T14:56:27.776Z,1.00
2023-03-28T15:01:33.947Z,0.90
2023-03-28T15:06:39.424Z,1.10
2023-03-28T15:11:43.688Z,1.03
2023-03-28T15:16:47.357Z,1.60
2023-03-28T15:21:57.493Z,12.63
2023-03-28T15:27:02.079Z,1.00
2023-03-28T15:32:17.491Z,3.43
2023-03-28T15:37:22.583Z,1.93
2023-03-28T15:42:34.323Z,1.70
2023-03-28T15:47:37.309Z,1.63
2023-03-28T15:52:43.296Z,3.37
2023-03-28T15:57:47.798Z,2.10
2023-03-28T16:02:50.431Z,4.97
2023-03-28T16:07:54.384Z,20.67
2023-03-28T16:12:57.705Z,51.83
2023-03-28T16:18:23.136Z,10.10
2023-03-28T16:23:31.691Z,4.33
2023-03-28T16:28:35.482Z,13.27
2023-03-28T16:33:38.014Z,21.83
2023-03-28T16:38:40.574Z,9.10
2023-03-28T16:43:43.215Z,2.20
2023-03-28T16:48:45.914Z,3.30
2023-03-28T16:53:48.639Z,2.30
2023-03-28T16:58:51.041Z,2.63
2023-03-28T17:03:55.131Z,3.53
2023-03-28T17:08:58.856Z,3.10
2023-03-28T17:14:01.449Z,1.53
2023-03-28T17:19:04.164Z,2.53
2023-03-28T17:24:11.589Z,2.87
2023-03-28T17:29:16.066Z,2.57
2023-03-28T17:34:19.231Z,2.60
2023-03-28T17:39:23.095Z,3.43
2023-03-28T17:44:26.228Z,3.33
2023-03-28T17:49:28.802Z,4.30
2023-03-28T17:54:31.283Z,5.23
2023-03-28T17:59:34.171Z,6.43
2023-03-28T18:04:37.198Z,6.67
2023-03-28T18:09:40.276Z,6.80
2023-03-28T18:14:44.765Z,6.63
2023-03-28T18:19:47.346Z,7.73
2023-03-28T18:24:49.875Z,7.50
2023-03-28T18:29:53.070Z,10.47
2023-03-28T18:34:55.889Z,14.97
2023-03-28T18:39:58.753Z,23.50
2023-03-28T18:45:01.543Z,19.20
2023-03-28T18:50:05.473Z,19.03
2023-03-28T18:55:09.905Z,13.97
2023-03-28T19:00:17.777Z,11.30
2023-03-28T19:05:20.428Z,7.50
2023-03-28T19:10:23.075Z,8.50
2023-03-28T19:15:25.776Z,9.00
2023-03-28T19:20:28.691Z,11.37
2023-03-28T19:25:31.888Z,13.83
2023-03-28T19:30:38.574Z,13.47
2023-03-28T19:35:42.430Z,21.07
2023-03-28T19:40:44.999Z,15.83
2023-03-28T19:45:48.721Z,16.50
2023-03-28T19:50:51.358Z,23.93
2023-03-28T19:56:01.537Z,35.20
2023-03-28T20:01:04.748Z,42.80
2023-03-28T20:06:11.340Z,44.73
2023-03-28T20:11:14.846Z,45.70
2023-03-28T20:16:17.500Z,44.87
2023-03-28T20:21:20.202Z,51.43
2023-03-28T20:26:27.242Z,48.10
2023-03-28T20:31:29.855Z,44.40
2023-03-28T20:36:35.169Z,38.17
2023-03-28T20:41:38.079Z,39.10
2023-03-28T20:46:40.691Z,32.47
2023-03-28T20:51:44.134Z,32.40
2023-03-28T20:56:46.898Z,38.17
2023-03-28T21:01:49.497Z,36.37
2023-03-28T21:06:51.980Z,44.73
2023-03-28T21:11:54.531Z,39.13
2023-03-28T21:16:58.003Z,40.03
2023-03-28T21:22:01.861Z,38.03
2023-03-28T21:27:04.377Z,34.00
2023-03-28T21:32:06.962Z,33.33
2023-03-28T21:37:09.710Z,29.83
2023-03-28T21:42:12.208Z,25.37
2023-03-28T21:47:14.685Z,25.07
2023-03-28T21:52:17.416Z,22.90
2023-03-28T21:57:19.968Z,34.00
2023-03-28T22:02:22.546Z,35.27
2023-03-28T22:07:25.359Z,35.47
2023-03-28T22:12:31.537Z,29.10
2023-03-28T22:17:36.639Z,30.07
2023-03-28T22:22:44.944Z,34.50
2023-03-28T22:27:47.506Z,35.33
2023-03-28T22:32:50.071Z,38.00
2023-03-28T22:37:52.644Z,41.47
2023-03-28T22:42:55.203Z,43.87
2023-03-28T22:48:00.321Z,40.90
2023-03-28T22:53:04.476Z,42.97
2023-03-28T22:58:07.287Z,52.80
2023-03-28T23:03:10.393Z,48.07
2023-03-28T23:08:13.179Z,47.50
2023-03-28T23:13:16.589Z,47.00
2023-03-28T23:18:19.336Z,41.40
2023-03-28T23:23:22.021Z,37.93
2023-03-28T23:28:24.566Z,37.10
2023-03-28T23:33:27.160Z,37.03
2023-03-28T23:38:29.761Z,35.07
2023-03-28T23:43:32.691Z,33.13
2023-03-28T23:48:36.268Z,34.37
2023-03-28T23:53:39.018Z,33.03
2023-03-28T23:58:41.558Z,32.70
